»·PEaware :: WAT202 KABQ-KLAS

WAT202 :: KABQ-KLAS

FLIGHT INFORMATION

Flight Status: Arrived
Operator:
Walker Air Transport
More flights by this operator :: More flights under this callsign
Pilot: Nick L. (7253)
Aircraft: AIRBUS A319
(A319)
More flights by this aircraft type
Origin: KABQ Albuquerque Intl Sunport
United States
Destination: KLAS Harry Reid Intl
United States
More flights between these airports :: More routes between these airports
Route: RDRNR3 GUP HAHAA RKSTR1
File this flight plan on PilotEdge
Remarks: RMK / SIMBRIEF
Altitude:
(Current/Filed)
36,000ft
Speed:
(Current/Filed)
450kts
Departed: 28-Feb-21 02:50 PM
Arrived: 28-Feb-21 04:12 PM
Distance/Time
Traveled:
421nm/1:21
Distance/Time
To Go:
Arrived

Flight Plot

Page will automatically refresh every two minutes.

Flight plan parsing failed; only flown route is shown


Map Options




Map Legend


Flown Route
Filed Route
Departure Airport
Arrival Airport
Navaid (VOR, NDB)
Fix

Horizontal Profiles

Position Reports

Time Latitude Longitude Heading Altitude Ground
Speed
28-Feb-21 14:23 35.047895 -106.618153 174 5323ft 0kts
28-Feb-21 14:24 35.047895 -106.618153 174 5323ft 0kts
28-Feb-21 14:25 35.047895 -106.618153 174 5323ft 0kts
28-Feb-21 14:26 35.047895 -106.618153 174 5323ft 0kts
28-Feb-21 14:27 35.047895 -106.618153 174 5323ft 0kts
28-Feb-21 14:28 35.047895 -106.618153 174 5323ft 0kts
28-Feb-21 14:29 35.047895 -106.618153 174 5323ft 0kts
28-Feb-21 14:30 35.047895 -106.618153 174 5323ft 0kts
28-Feb-21 14:31 35.047895 -106.618153 174 5323ft 0kts
28-Feb-21 14:32 35.047895 -106.618153 174 5323ft 0kts
28-Feb-21 14:33 35.047895 -106.618153 174 5323ft 0kts
28-Feb-21 14:34 35.047895 -106.618153 174 5323ft 0kts
28-Feb-21 14:35 35.047895 -106.618153 174 5323ft 0kts
28-Feb-21 14:36 35.047895 -106.618153 174 5323ft 0kts
28-Feb-21 14:37 35.047895 -106.618153 174 5323ft 0kts
28-Feb-21 14:38 35.047895 -106.618153 174 5323ft 0kts
28-Feb-21 14:39 35.048373 -106.618084 234 5323ft 2kts
28-Feb-21 14:40 35.048418 -106.618877 269 5323ft 2kts
28-Feb-21 14:41 35.048375 -106.619203 252 5323ft 0kts
28-Feb-21 14:42 35.048375 -106.619203 252 5323ft 0kts
28-Feb-21 14:43 35.048375 -106.619203 252 5323ft 0kts
28-Feb-21 14:44 35.048375 -106.619203 252 5323ft 0kts
28-Feb-21 14:45 35.048259 -106.619386 219 5323ft 3kts
28-Feb-21 14:46 35.046188 -106.619594 180 5323ft 10kts
28-Feb-21 14:47 35.045337 -106.621351 205 5323ft 0kts
28-Feb-21 14:48 35.044741 -106.621415 172 5323ft 7kts
28-Feb-21 14:49 35.044243 -106.605489 89 5324ft 142kts
28-Feb-21 14:50 35.044039 -106.552549 85 6927ft 165kts
28-Feb-21 14:51 35.073181 -106.534422 309 8537ft 151kts
28-Feb-21 14:52 35.080358 -106.584305 272 10071ft 154kts
28-Feb-21 14:53 35.083930 -106.640557 269 11080ft 188kts
28-Feb-21 14:54 35.088363 -106.712948 270 12174ft 244kts
28-Feb-21 14:55 35.098261 -106.806507 277 13567ft 310kts
28-Feb-21 14:56 35.115147 -106.918821 279 15662ft 348kts
28-Feb-21 14:57 35.133703 -107.042892 281 17209ft 392kts
28-Feb-21 14:58 35.153600 -107.175371 280 19586ft 403kts
28-Feb-21 14:59 35.174435 -107.311650 281 21706ft 413kts
28-Feb-21 15:00 35.197146 -107.450441 281 23604ft 421kts
28-Feb-21 15:01 35.220687 -107.596340 280 25225ft 431kts
28-Feb-21 15:02 35.244067 -107.743253 279 26811ft 435kts
28-Feb-21 15:03 35.266821 -107.887151 279 28609ft 429kts
28-Feb-21 15:04 35.289312 -108.030393 278 30168ft 425kts
28-Feb-21 15:05 35.311280 -108.171534 278 31492ft 422kts
28-Feb-21 15:06 35.333034 -108.312398 278 32660ft 420kts
28-Feb-21 15:07 35.363164 -108.450394 285 33705ft 421kts
28-Feb-21 15:08 35.392145 -108.558231 284 34409ft 420kts
28-Feb-21 15:09 35.425624 -108.683470 284 35205ft 418kts
28-Feb-21 15:10 35.460001 -108.819044 280 36007ft 414kts
28-Feb-21 15:11 35.475449 -108.947855 269 36070ft 349kts
28-Feb-21 15:12 35.476294 -109.066216 271 36076ft 356kts
28-Feb-21 15:13 35.476871 -109.191167 274 36065ft 376kts
28-Feb-21 15:14 35.477182 -109.322740 273 36097ft 395kts
28-Feb-21 15:15 35.477248 -109.460379 272 36093ft 414kts
28-Feb-21 15:16 35.477265 -109.604996 273 36101ft 432kts
28-Feb-21 15:17 35.477115 -109.754859 272 36096ft 448kts
28-Feb-21 15:18 35.476760 -109.909785 272 36109ft 461kts
28-Feb-21 15:19 35.476217 -110.068751 272 36122ft 467kts
28-Feb-21 15:20 35.475462 -110.226732 272 36147ft 464kts
28-Feb-21 15:21 35.474507 -110.385256 272 36150ft 465kts
28-Feb-21 15:23 35.473345 -110.543241 272 36144ft 455kts
28-Feb-21 15:24 35.472020 -110.696943 271 36147ft 451kts
28-Feb-21 15:25 35.470540 -110.850384 272 36149ft 450kts
28-Feb-21 15:26 35.468614 -111.004326 275 36151ft 453kts
28-Feb-21 15:27 35.466677 -111.160025 279 36149ft 460kts
28-Feb-21 15:28 35.464776 -111.316705 279 36149ft 460kts
28-Feb-21 15:29 35.462475 -111.473550 279 36151ft 461kts
28-Feb-21 15:30 35.459990 -111.630114 279 36149ft 459kts
28-Feb-21 15:31 35.457266 -111.786874 278 36163ft 461kts
28-Feb-21 15:32 35.465441 -111.941217 288 36181ft 447kts
28-Feb-21 15:33 35.484483 -112.091384 289 36191ft 448kts
28-Feb-21 15:34 35.503333 -112.242403 289 36194ft 447kts
28-Feb-21 15:35 35.521870 -112.392827 289 36194ft 447kts
28-Feb-21 15:36 35.540250 -112.543342 289 36195ft 447kts
28-Feb-21 15:37 35.558468 -112.694399 288 36196ft 448kts
28-Feb-21 15:38 35.576242 -112.844227 288 35742ft 432kts
28-Feb-21 15:39 35.593523 -112.990468 288 33482ft 437kts
28-Feb-21 15:40 35.610919 -113.139330 287 30659ft 443kts
28-Feb-21 15:41 35.628281 -113.289650 286 27730ft 448kts
28-Feb-21 15:41 35.642769 -113.416244 285 25367ft 446kts
28-Feb-21 15:43 35.666856 -113.588646 288 23561ft 442kts
28-Feb-21 15:44 35.690568 -113.733957 287 21296ft 423kts
28-Feb-21 15:44 35.709423 -113.850046 287 19537ft 409kts
28-Feb-21 15:46 35.734710 -114.006276 287 17107ft 393kts
28-Feb-21 15:46 35.751840 -114.113473 287 15994ft 363kts
28-Feb-21 15:47 35.787579 -114.220402 305 14766ft 329kts
28-Feb-21 15:49 35.838556 -114.332777 308 12971ft 316kts
28-Feb-21 15:49 35.881594 -114.403829 313 11694ft 307kts
28-Feb-21 15:50 35.933037 -114.486138 312 10380ft 292kts
28-Feb-21 15:51 35.979113 -114.560434 312 9679ft 267kts
28-Feb-21 15:52 36.023640 -114.632711 312 8472ft 261kts
28-Feb-21 15:53 36.061278 -114.704079 307 7997ft 223kts
28-Feb-21 15:54 36.073305 -114.774590 275 7381ft 218kts
28-Feb-21 15:55 36.073276 -114.845622 275 6382ft 197kts
28-Feb-21 15:56 36.073365 -114.913264 274 5369ft 195kts
28-Feb-21 15:57 36.073421 -114.979693 274 4491ft 192kts
28-Feb-21 15:58 36.073413 -115.044366 275 3455ft 177kts
28-Feb-21 15:59 36.073440 -115.096950 274 2658ft 141kts
28-Feb-21 16:00 36.073507 -115.147460 275 4452ft 144kts
28-Feb-21 16:01 36.071638 -115.198790 272 6389ft 163kts
28-Feb-21 16:02 36.044180 -115.245467 170 6978ft 214kts
28-Feb-21 16:03 36.015352 -115.190498 97 6886ft 195kts
28-Feb-21 16:04 36.012142 -115.124722 86 5675ft 190kts
28-Feb-21 16:05 36.011054 -115.060211 86 5015ft 187kts
28-Feb-21 16:06 36.009977 -114.995454 86 5007ft 188kts
28-Feb-21 16:07 36.035777 -114.956856 0 4627ft 173kts
28-Feb-21 16:08 36.070865 -114.988472 296 3999ft 179kts
28-Feb-21 16:09 36.073672 -115.053850 273 3369ft 198kts
28-Feb-21 16:10 36.073616 -115.112573 273 2410ft 143kts
28-Feb-21 16:11 36.074436 -115.145220 298 2187ft 37kts
28-Feb-21 16:12 36.074822 -115.146031 301 2187ft 0kts
28-Feb-21 16:13 36.074965 -115.146264 313 2187ft 8kts
28-Feb-21 16:14 36.078500 -115.147514 307 2187ft 2kts
28-Feb-21 16:15 36.079593 -115.146679 27 2187ft 0kts
28-Feb-21 16:16 36.079593 -115.146679 27 2187ft 0kts
28-Feb-21 16:17 36.079593 -115.146679 27 2187ft 0kts
28-Feb-21 16:18 36.079593 -115.146679 27 2187ft 0kts
28-Feb-21 16:19 36.079593 -115.146679 27 2187ft 0kts
28-Feb-21 16:20 36.079593 -115.146679 27 2187ft 0kts
28-Feb-21 16:21 36.079593 -115.146679 27 2187ft 0kts
28-Feb-21 16:22 36.079593 -115.146679 27 2187ft 0kts
28-Feb-21 16:23 36.079593 -115.146679 27 2187ft 0kts
28-Feb-21 16:24 36.079593 -115.146679 27 2187ft 0kts
28-Feb-21 16:25 36.079593 -115.146679 27 2187ft 0kts

Navigation Log

Ident Type
Flight plan parsing failed, navigation log unavailable